Time;durP1;ratioP1;P1;durP2;ratioP2;P2;SDS_P1;SDS_P2;PMS_P1;PMS_P2;Temp;Humidity;BMP_temperature;BMP_pressure;BME280_temperature;BME280_humidity;BME280_pressure;Samples;Min_cycle;Max_cycle;Signal;HPM_P1;HPM_P2
2024/04/07 00:00:02;;;;;;;6.40;2.67;;;17.80;78.40;;;;;;5084045;28;20020;-86
2024/04/07 00:02:27;;;;;;;6.43;2.90;;;17.70;78.50;;;;;;5079691;28;20028;-87
2024/04/07 00:04:53;;;;;;;7.47;3.05;;;17.70;78.60;;;;;;5082757;28;20021;-85
2024/04/07 00:07:18;;;;;;;6.68;3.17;;;17.70;78.50;;;;;;5079796;28;20092;-86
2024/04/07 00:09:44;;;;;;;6.40;2.70;;;17.70;78.50;;;;;;5083280;28;20047;-85
2024/04/07 00:12:10;;;;;;;8.48;3.42;;;17.60;78.50;;;;;;5083225;28;20084;-86
2024/04/07 00:14:37;;;;;;;5.30;2.90;;;17.60;78.60;;;;;;5081090;28;20163;-86
2024/04/07 00:17:03;;;;;;;8.88;2.65;;;17.50;78.70;;;;;;5082004;28;20016;-86
2024/04/07 00:19:29;;;;;;;4.47;2.08;;;17.50;78.80;;;;;;5081697;28;20020;-85
2024/04/07 00:21:55;;;;;;;4.13;1.80;;;17.50;78.80;;;;;;5082297;28;20452;-87
2024/04/07 00:24:21;;;;;;;5.32;2.40;;;17.50;78.90;;;;;;5080299;28;20027;-86
2024/04/07 00:26:46;;;;;;;7.40;2.13;;;17.50;79.00;;;;;;5083069;28;20507;-86
2024/04/07 00:29:12;;;;;;;5.57;2.40;;;17.40;79.30;;;;;;5081341;28;20032;-86
2024/04/07 00:31:38;;;;;;;6.35;2.10;;;17.40;79.60;;;;;;5081022;28;20031;-86
2024/04/07 00:34:04;;;;;;;5.47;2.05;;;17.40;79.70;;;;;;5082133;28;20036;-86
2024/04/07 00:36:29;;;;;;;5.78;2.53;;;17.40;79.70;;;;;;5081504;28;20086;-86
2024/04/07 00:38:55;;;;;;;4.95;2.13;;;17.40;79.60;;;;;;5083220;28;20021;-87
2024/04/07 00:41:21;;;;;;;5.80;2.05;;;17.40;79.50;;;;;;5079614;28;20025;-87
2024/04/07 00:43:46;;;;;;;4.95;2.00;;;17.50;79.40;;;;;;5083201;28;20021;-86
2024/04/07 00:46:12;;;;;;;4.75;1.67;;;17.50;79.40;;;;;;5080186;28;20051;-86
2024/04/07 00:48:38;;;;;;;6.53;2.03;;;17.50;79.30;;;;;;5082535;28;20039;-86
2024/04/07 00:51:04;;;;;;;6.32;1.77;;;17.50;79.30;;;;;;5082957;28;20028;-86
2024/04/07 00:53:31;;;;;;;4.60;2.00;;;17.50;79.40;;;;;;5079761;28;20047;-86
2024/04/07 00:55:56;;;;;;;5.75;2.20;;;17.50;79.30;;;;;;5082981;28;20468;-86
2024/04/07 00:58:22;;;;;;;5.00;1.90;;;17.50;79.40;;;;;;5081039;28;20092;-87
2024/04/07 01:00:48;;;;;;;4.05;1.90;;;17.50;79.90;;;;;;5081083;28;20092;-86
2024/04/07 01:03:17;;;;;;;5.65;2.25;;;17.50;79.20;;;;;;5080042;28;20021;-85
2024/04/07 01:05:43;;;;;;;5.30;1.88;;;17.50;79.20;;;;;;5081165;28;20457;-85
2024/04/07 01:08:10;;;;;;;4.75;1.90;;;17.50;79.10;;;;;;5082309;28;20105;-86
2024/04/07 01:10:36;;;;;;;6.82;1.77;;;17.50;79.00;;;;;;5081188;28;20446;-86
2024/04/07 01:13:02;;;;;;;6.38;1.42;;;17.50;78.80;;;;;;5083016;28;20044;-86
2024/04/07 01:15:28;;;;;;;7.03;1.88;;;17.50;78.70;;;;;;5082571;28;20025;-86
2024/04/07 01:17:54;;;;;;;6.15;1.80;;;17.50;78.60;;;;;;5084568;28;20511;-86
2024/04/07 01:20:20;;;;;;;9.20;2.55;;;17.50;78.50;;;;;;5081605;28;20020;-86
2024/04/07 01:22:47;;;;;;;7.20;1.85;;;17.50;78.40;;;;;;5082257;28;20535;-85
2024/04/07 01:25:18;;;;;;;5.82;1.85;;;17.50;78.30;;;;;;5082755;28;20518;-86
2024/04/07 01:27:55;;;;;;;8.38;1.70;;;17.50;78.20;;;;;;5080413;28;20044;-86
2024/04/07 01:30:22;;;;;;;9.35;2.00;;;17.50;78.20;;;;;;5082902;28;20084;-86
2024/04/07 01:32:48;;;;;;;7.72;1.50;;;17.50;78.10;;;;;;5079031;28;20032;-86
2024/04/07 01:35:14;;;;;;;5.93;1.67;;;17.50;78.20;;;;;;5081027;28;20025;-87
2024/04/07 01:37:39;;;;;;;8.20;2.47;;;17.50;78.10;;;;;;5081529;28;20033;-85
2024/04/07 01:40:08;;;;;;;8.18;1.75;;;17.50;78.30;;;;;;5080461;28;20021;-86
2024/04/07 01:42:35;;;;;;;7.30;1.88;;;17.50;78.20;;;;;;5080966;28;20082;-86
2024/04/07 01:45:01;;;;;;;7.35;1.58;;;17.50;78.40;;;;;;5079332;28;20069;-85
2024/04/07 01:47:26;;;;;;;4.35;1.00;;;17.50;78.50;;;;;;5082422;28;20025;-85
2024/04/07 01:49:52;;;;;;;6.47;1.00;;;17.50;78.80;;;;;;5080214;28;20027;-85
2024/04/07 01:52:18;;;;;;;4.50;0.60;;;17.50;79.20;;;;;;5081231;28;20027;-85
2024/04/07 01:54:44;;;;;;;3.90;0.73;;;17.50;79.80;;;;;;5079558;28;20039;-85
2024/04/07 01:57:11;;;;;;;4.45;0.73;;;17.40;80.00;;;;;;5081455;28;20017;-86
2024/04/07 01:59:36;;;;;;;7.53;0.80;;;17.40;80.40;;;;;;5082461;28;20040;-85
2024/04/07 02:02:02;;;;;;;4.15;0.85;;;17.40;80.70;;;;;;5080762;28;20070;-85
2024/04/07 02:04:28;;;;;;;4.57;0.88;;;17.30;81.10;;;;;;5080930;28;20496;-85
2024/04/07 02:06:55;;;;;;;7.28;0.80;;;17.30;81.50;;;;;;5080615;28;20496;-86
2024/04/07 02:09:20;;;;;;;5.03;0.70;;;17.20;81.60;;;;;;5082335;28;20017;-86
2024/04/07 02:11:49;;;;;;;4.13;0.77;;;17.20;81.90;;;;;;5080437;28;20020;-86
2024/04/07 02:14:15;;;;;;;7.65;0.73;;;17.20;82.00;;;;;;5085818;28;20037;-84
2024/04/07 02:16:41;;;;;;;4.68;0.60;;;17.10;82.30;;;;;;5085853;28;20088;-84
2024/04/07 02:19:07;;;;;;;3.63;0.95;;;17.10;82.60;;;;;;5084225;28;20488;-84
2024/04/07 02:21:36;;;;;;;3.50;0.60;;;17.10;82.60;;;;;;5086091;28;20115;-85
2024/04/07 02:24:02;;;;;;;4.57;0.85;;;17.00;82.90;;;;;;5084458;28;20016;-84
2024/04/07 02:26:27;;;;;;;2.92;0.50;;;17.00;83.20;;;;;;5084372;28;20055;-85
2024/04/07 02:28:53;;;;;;;2.70;0.57;;;16.90;83.50;;;;;;5084545;28;20435;-86
2024/04/07 02:31:18;;;;;;;3.65;0.75;;;16.90;83.50;;;;;;5085309;28;20551;-85
2024/04/07 02:33:46;;;;;;;2.28;0.50;;;16.90;83.70;;;;;;5083921;28;20036;-85
2024/04/07 02:36:12;;;;;;;3.65;0.70;;;16.80;84.00;;;;;;5083812;28;20040;-85
2024/04/07 02:38:38;;;;;;;4.07;0.80;;;16.80;84.30;;;;;;5084291;28;20017;-86
2024/04/07 02:41:04;;;;;;;3.60;0.60;;;16.70;84.50;;;;;;5082178;28;20024;-86
2024/04/07 02:43:30;;;;;;;6.15;1.15;;;16.80;84.90;;;;;;5084199;28;20020;-85
2024/04/07 02:48:42;;;;;;;3.63;0.50;;;16.70;84.50;;;;;;5084631;28;20044;-85
2024/04/07 02:51:07;;;;;;;3.40;0.60;;;16.70;84.50;;;;;;5083948;28;20021;-87
2024/04/07 02:53:33;;;;;;;5.68;0.70;;;16.70;84.40;;;;;;5083719;28;20032;-87
2024/04/07 02:55:58;;;;;;;5.07;0.70;;;16.60;84.50;;;;;;5083932;28;20051;-86
2024/04/07 02:58:24;;;;;;;5.13;0.70;;;16.60;84.20;;;;;;5083502;28;20047;-86
2024/04/07 03:00:50;;;;;;;4.38;0.80;;;16.60;84.40;;;;;;5084151;28;20461;-85
2024/04/07 03:03:16;;;;;;;4.32;0.57;;;16.60;84.30;;;;;;5084008;28;20024;-86
2024/04/07 03:05:41;;;;;;;2.75;0.50;;;16.50;84.10;;;;;;5084715;28;20045;-85
2024/04/07 03:08:07;;;;;;;2.05;0.50;;;16.50;83.70;;;;;;5083215;28;20032;-86
2024/04/07 03:10:33;;;;;;;3.05;0.55;;;16.50;83.40;;;;;;5083107;28;20020;-85
2024/04/07 03:12:58;;;;;;;1.80;0.50;;;16.50;83.30;;;;;;5085170;28;20118;-85
2024/04/07 03:15:26;;;;;;;2.08;0.30;;;16.50;82.80;;;;;;5083184;28;20028;-86
2024/04/07 03:17:52;;;;;;;1.58;0.30;;;16.50;82.80;;;;;;5083345;28;20033;-86
2024/04/07 03:20:17;;;;;;;3.47;0.68;;;16.40;82.70;;;;;;5083469;28;20028;-86
2024/04/07 03:22:43;;;;;;;2.95;0.40;;;16.40;82.60;;;;;;5084789;28;20025;-86
2024/04/07 03:25:08;;;;;;;3.00;0.40;;;16.40;82.20;;;;;;5089762;28;20029;-85
2024/04/07 03:27:34;;;;;;;1.70;0.30;;;16.40;82.20;;;;;;5089294;28;20076;-85
2024/04/07 03:30:00;;;;;;;2.20;0.35;;;16.40;82.10;;;;;;5087914;28;20069;-86
2024/04/07 03:32:25;;;;;;;1.30;0.20;;;16.40;81.70;;;;;;5084753;28;20050;-85
2024/04/07 03:34:51;;;;;;;1.13;0.30;;;16.40;81.70;;;;;;5087963;28;20029;-86
2024/04/07 03:37:17;;;;;;;1.92;0.22;;;16.40;81.50;;;;;;5086470;28;20021;-87
2024/04/07 03:39:43;;;;;;;2.10;0.45;;;16.40;81.40;;;;;;5086569;28;20086;-86
2024/04/07 03:42:08;;;;;;;2.70;0.20;;;16.40;81.30;;;;;;5088355;28;20074;-86
2024/04/07 03:44:34;;;;;;;1.15;0.30;;;16.40;81.30;;;;;;5088734;28;20080;-85
2024/04/07 03:47:00;;;;;;;3.05;0.40;;;16.40;81.00;;;;;;5089847;28;20032;-86
2024/04/07 03:49:26;;;;;;;2.42;0.32;;;16.40;80.80;;;;;;5086571;28;20027;-85
2024/04/07 03:51:52;;;;;;;2.45;0.30;;;16.40;80.60;;;;;;5085003;28;20020;-87
2024/04/07 03:54:19;;;;;;;4.55;0.30;;;16.40;80.40;;;;;;5080867;28;20425;-86
2024/04/07 03:56:45;;;;;;;1.45;0.30;;;16.50;80.00;;;;;;5084007;28;20024;-85
2024/04/07 03:59:11;;;;;;;1.10;0.30;;;16.50;79.70;;;;;;5081905;28;20122;-86
2024/04/07 04:01:41;;;;;;;1.70;0.30;;;16.50;79.70;;;;;;5083239;28;20024;-86
2024/04/07 04:04:06;;;;;;;2.33;0.25;;;16.50;79.40;;;;;;5082433;28;20024;-86
2024/04/07 04:06:32;;;;;;;3.15;0.35;;;16.50;79.20;;;;;;5082415;28;20506;-87
2024/04/07 04:08:58;;;;;;;2.42;0.30;;;16.50;78.70;;;;;;5083860;28;20056;-87
2024/04/07 04:11:23;;;;;;;3.50;0.30;;;16.50;78.50;;;;;;5081548;28;20055;-86
2024/04/07 04:13:50;;;;;;;2.10;0.30;;;16.50;78.20;;;;;;5082398;28;20037;-87
2024/04/07 04:16:17;;;;;;;3.72;0.40;;;16.50;78.00;;;;;;5083017;28;20101;-85
2024/04/07 04:18:43;;;;;;;1.90;0.20;;;16.60;77.60;;;;;;5082883;28;20027;-85
2024/04/07 04:21:10;;;;;;;2.13;0.30;;;16.60;77.70;;;;;;5082319;28;20052;-86
2024/04/07 04:23:37;;;;;;;1.90;0.30;;;16.50;77.20;;;;;;5081427;28;20066;-87
2024/04/07 04:26:03;;;;;;;1.10;0.30;;;16.50;76.80;;;;;;5082193;28;20035;-87
2024/04/07 04:28:29;;;;;;;1.42;0.32;;;16.60;76.80;;;;;;5081490;28;20068;-86
2024/04/07 04:31:01;;;;;;;2.15;0.40;;;16.60;76.60;;;;;;5082421;28;20047;-88
2024/04/07 04:33:27;;;;;;;2.17;0.20;;;16.60;76.50;;;;;;5082690;28;20055;-87
2024/04/07 04:35:53;;;;;;;2.42;0.20;;;16.60;76.00;;;;;;5080596;28;20017;-87
2024/04/07 04:38:19;;;;;;;1.77;0.30;;;16.60;75.70;;;;;;5083148;28;20013;-86
2024/04/07 04:41:05;;;;;;;1.80;0.10;;;16.60;75.30;;;;;;5080142;28;20027;-86
2024/04/07 04:43:31;;;;;;;0.90;0.10;;;16.60;75.00;;;;;;5083351;28;20476;-85
2024/04/07 04:46:13;;;;;;;1.65;0.20;;;16.60;74.90;;;;;;5081950;28;20020;-85
2024/04/07 04:48:38;;;;;;;1.05;0.20;;;16.70;74.90;;;;;;5081339;28;20024;-86
2024/04/07 04:51:05;;;;;;;0.47;0.10;;;16.60;74.30;;;;;;5066111;28;20025;-86
2024/04/07 04:53:31;;;;;;;0.40;0.10;;;16.60;74.30;;;;;;5059665;28;20044;-86
2024/04/07 04:56:04;;;;;;;0.85;0.17;;;16.60;74.60;;;;;;5061736;28;20025;-86
2024/04/07 04:58:30;;;;;;;1.48;0.20;;;16.60;74.40;;;;;;5059723;28;20025;-86
2024/04/07 05:01:09;;;;;;;0.70;0.10;;;16.60;74.10;;;;;;5062857;28;20029;-86
2024/04/07 05:03:35;;;;;;;1.27;0.10;;;16.60;73.50;;;;;;5058985;28;20028;-86
2024/04/07 05:06:08;;;;;;;1.17;0.20;;;16.60;73.20;;;;;;5059808;28;20021;-87
2024/04/07 05:08:35;;;;;;;0.75;0.17;;;16.60;73.40;;;;;;5061378;28;20025;-86
2024/04/07 05:11:04;;;;;;;1.48;0.30;;;16.60;72.90;;;;;;5060722;28;20025;-86
2024/04/07 05:13:30;;;;;;;1.55;0.20;;;16.60;72.90;;;;;;5061762;28;20049;-87
2024/04/07 05:15:56;;;;;;;1.80;0.17;;;16.60;72.70;;;;;;5061079;28;20029;-86
2024/04/07 05:18:22;;;;;;;0.73;0.13;;;16.60;72.90;;;;;;5061209;28;20083;-87
2024/04/07 05:20:49;;;;;;;1.45;0.20;;;16.60;73.70;;;;;;5060529;28;20020;-86
2024/04/07 05:23:15;;;;;;;1.80;0.13;;;16.60;72.80;;;;;;5060101;28;20021;-86
2024/04/07 05:25:41;;;;;;;1.58;0.20;;;16.60;72.90;;;;;;5062906;28;20052;-86
2024/04/07 05:28:07;;;;;;;1.27;0.20;;;16.60;73.00;;;;;;5060648;28;20100;-85
2024/04/07 05:30:34;;;;;;;1.65;0.22;;;16.50;72.90;;;;;;5062548;28;20032;-85
2024/04/07 05:33:00;;;;;;;3.25;0.40;;;16.50;73.00;;;;;;5060413;28;20048;-86
2024/04/07 05:35:26;;;;;;;0.57;0.10;;;16.60;73.20;;;;;;5065379;28;20422;-85
2024/04/07 05:37:51;;;;;;;1.52;0.20;;;16.50;73.30;;;;;;5068537;28;20055;-85
2024/04/07 05:40:17;;;;;;;1.13;0.10;;;16.50;73.40;;;;;;5061471;28;20018;-86
2024/04/07 05:42:42;;;;;;;0.98;0.13;;;16.50;73.60;;;;;;5061081;28;20024;-87
2024/04/07 05:45:08;;;;;;;0.52;0.10;;;16.50;73.70;;;;;;5058844;28;20092;-86
2024/04/07 05:47:34;;;;;;;1.13;0.38;;;16.50;73.80;;;;;;5066845;28;20093;-87
2024/04/07 05:49:59;;;;;;;1.08;0.10;;;16.50;74.00;;;;;;5063324;28;20037;-89
2024/04/07 05:52:25;;;;;;;1.95;0.20;;;16.50;74.10;;;;;;5065134;28;20029;-88
2024/04/07 05:54:50;;;;;;;1.23;0.15;;;16.50;74.20;;;;;;5069157;28;20096;-88
2024/04/07 05:57:16;;;;;;;1.15;0.20;;;16.40;74.20;;;;;;5077531;28;20028;-87
2024/04/07 05:59:42;;;;;;;2.05;0.20;;;16.50;74.40;;;;;;5085127;28;20112;-89
2024/04/07 06:02:08;;;;;;;1.23;0.20;;;16.50;74.40;;;;;;5083356;28;20028;-87
2024/04/07 06:04:33;;;;;;;0.85;0.10;;;16.50;74.60;;;;;;5085212;28;20024;-88
2024/04/07 06:06:59;;;;;;;1.20;0.20;;;16.50;74.70;;;;;;5083215;28;20023;-88
2024/04/07 06:09:25;;;;;;;3.92;0.75;;;16.50;74.80;;;;;;5084354;28;20069;-86
2024/04/07 06:11:50;;;;;;;1.00;0.20;;;16.50;74.90;;;;;;5082198;28;20103;-86
2024/04/07 06:14:16;;;;;;;2.40;0.20;;;16.40;75.00;;;;;;5073648;28;20638;-87
2024/04/07 06:16:42;;;;;;;2.05;0.20;;;16.40;75.20;;;;;;5063999;28;20009;-86
2024/04/07 06:19:07;;;;;;;0.93;0.20;;;16.40;75.40;;;;;;5064277;28;20067;-88
2024/04/07 06:21:33;;;;;;;2.70;0.20;;;16.30;75.50;;;;;;5066182;28;20045;-87
2024/04/07 06:23:58;;;;;;;2.45;0.17;;;16.30;75.60;;;;;;5061370;28;20017;-88
2024/04/07 06:26:24;;;;;;;4.80;0.38;;;16.30;75.80;;;;;;5064579;28;20020;-87
2024/04/07 06:28:50;;;;;;;0.98;0.10;;;16.30;75.90;;;;;;5064018;28;20106;-87
2024/04/07 06:31:15;;;;;;;1.08;0.15;;;16.30;76.00;;;;;;5058839;28;20013;-87
2024/04/07 06:33:42;;;;;;;2.13;0.32;;;16.30;76.20;;;;;;5063330;28;20032;-87
2024/04/07 06:36:08;;;;;;;4.15;0.28;;;16.20;76.30;;;;;;5064290;28;20020;-87
2024/04/07 06:38:34;;;;;;;1.42;0.20;;;16.20;76.40;;;;;;5064530;28;20018;-87
2024/04/07 06:41:00;;;;;;;2.85;0.30;;;16.20;76.60;;;;;;5063845;28;20025;-87
2024/04/07 06:43:25;;;;;;;1.15;0.25;;;16.20;76.90;;;;;;5064036;28;20021;-86
2024/04/07 06:45:51;;;;;;;1.00;0.10;;;16.20;77.10;;;;;;5061432;28;20017;-88
2024/04/07 06:48:17;;;;;;;1.08;0.17;;;16.20;77.20;;;;;;5063913;28;20068;-87
2024/04/07 06:50:42;;;;;;;1.65;0.20;;;16.20;77.20;;;;;;5064295;28;20371;-87
2024/04/07 06:53:08;;;;;;;2.53;0.40;;;16.20;77.20;;;;;;5064485;28;20079;-86
2024/04/07 06:55:33;;;;;;;1.17;0.20;;;16.20;77.40;;;;;;5055487;28;20036;-87
2024/04/07 06:57:59;;;;;;;3.28;0.40;;;16.20;77.50;;;;;;5042947;28;20029;-89
2024/04/07 07:00:25;;;;;;;1.23;0.22;;;16.20;77.60;;;;;;5044281;28;20512;-89
2024/04/07 07:02:50;;;;;;;3.28;0.45;;;16.20;77.80;;;;;;5043374;28;20013;-89
2024/04/07 07:05:16;;;;;;;3.50;0.30;;;16.10;77.70;;;;;;5044171;28;20036;-89
2024/04/07 07:07:42;;;;;;;0.68;0.15;;;16.10;77.90;;;;;;5044841;28;20440;-89
2024/04/07 07:10:08;;;;;;;1.90;0.32;;;16.10;78.00;;;;;;5043499;28;20075;-89
2024/04/07 07:12:34;;;;;;;1.30;0.22;;;16.10;78.20;;;;;;5045229;28;20025;-89
2024/04/07 07:15:00;;;;;;;2.17;0.20;;;16.10;78.10;;;;;;5043412;28;20048;-88
2024/04/07 07:17:26;;;;;;;2.58;0.30;;;16.20;78.30;;;;;;5045927;28;20014;-91
2024/04/07 07:19:51;;;;;;;1.35;0.20;;;16.20;78.40;;;;;;5044051;28;20021;-90
2024/04/07 07:22:17;;;;;;;2.33;0.30;;;16.20;78.50;;;;;;5044763;28;20044;-90
2024/04/07 07:24:42;;;;;;;2.45;0.30;;;16.30;78.50;;;;;;5048116;28;20094;-90
2024/04/07 07:27:09;;;;;;;4.10;0.40;;;16.20;78.50;;;;;;5063849;28;20041;-89
2024/04/07 07:29:34;;;;;;;2.55;0.20;;;16.20;78.60;;;;;;5066618;28;20054;-87
2024/04/07 07:32:00;;;;;;;1.35;0.20;;;16.20;78.60;;;;;;5065960;28;20025;-87
2024/04/07 07:34:26;;;;;;;1.15;0.20;;;16.30;78.70;;;;;;5066488;28;20059;-85
2024/04/07 07:36:52;;;;;;;1.02;0.20;;;16.30;78.90;;;;;;5067724;28;20531;-87
2024/04/07 07:39:18;;;;;;;4.43;0.40;;;16.30;78.90;;;;;;5078196;28;20056;-84
2024/04/07 07:41:44;;;;;;;1.67;0.28;;;16.20;79.10;;;;;;5058039;28;20044;-85
2024/04/07 07:44:10;;;;;;;2.03;0.22;;;16.20;79.20;;;;;;5067135;28;20027;-85
2024/04/07 07:46:36;;;;;;;2.17;0.20;;;16.20;79.40;;;;;;5065553;28;20029;-85
2024/04/07 07:49:02;;;;;;;3.35;0.40;;;16.20;79.60;;;;;;5062145;28;20025;-85
2024/04/07 07:51:28;;;;;;;2.05;0.50;;;16.20;79.90;;;;;;5064156;28;20072;-85
2024/04/07 07:53:55;;;;;;;3.85;0.40;;;16.20;80.00;;;;;;5060823;28;20052;-85
2024/04/07 07:56:20;;;;;;;2.50;0.30;;;16.30;80.00;;;;;;5062443;28;20043;-85
2024/04/07 07:58:46;;;;;;;1.83;0.30;;;16.30;80.10;;;;;;5060963;28;20021;-84
2024/04/07 08:01:12;;;;;;;1.90;0.30;;;16.40;80.20;;;;;;5064209;28;20026;-84
2024/04/07 08:03:37;;;;;;;2.13;0.47;;;16.40;80.20;;;;;;5063499;28;20031;-84
2024/04/07 08:06:06;;;;;;;2.60;0.40;;;16.50;80.10;;;;;;5062901;28;20025;-85
2024/04/07 08:08:31;;;;;;;2.30;0.45;;;16.50;80.00;;;;;;5063206;28;20507;-85
2024/04/07 08:10:58;;;;;;;3.70;0.40;;;16.60;80.00;;;;;;5061822;28;20084;-85
2024/04/07 08:13:24;;;;;;;1.45;0.32;;;16.70;79.90;;;;;;5063909;28;20044;-84
2024/04/07 08:15:49;;;;;;;1.80;0.30;;;16.70;79.90;;;;;;5060086;28;20044;-86
2024/04/07 08:18:15;;;;;;;5.00;0.47;;;16.80;79.70;;;;;;5062392;28;20087;-85
2024/04/07 08:20:42;;;;;;;6.20;0.73;;;16.80;79.70;;;;;;5062668;28;20021;-85
2024/04/07 08:23:09;;;;;;;2.85;0.40;;;16.80;79.70;;;;;;5062943;28;20035;-85
2024/04/07 08:25:35;;;;;;;3.35;0.47;;;16.90;79.70;;;;;;5061920;28;20029;-85
2024/04/07 08:28:01;;;;;;;4.28;0.52;;;16.90;79.00;;;;;;5061352;28;20175;-85
2024/04/07 08:30:27;;;;;;;2.40;0.38;;;17.00;79.20;;;;;;5063388;28;20017;-85
2024/04/07 08:32:53;;;;;;;5.05;0.40;;;17.10;79.40;;;;;;5061463;28;20024;-86
2024/04/07 08:35:19;;;;;;;2.78;0.40;;;17.10;79.50;;;;;;5062096;28;20501;-85
2024/04/07 08:37:45;;;;;;;2.58;0.40;;;17.10;79.50;;;;;;5060456;28;20021;-85
2024/04/07 08:40:10;;;;;;;2.47;0.40;;;17.20;79.00;;;;;;5062721;28;20055;-85
2024/04/07 08:42:42;;;;;;;2.85;0.40;;;17.30;79.40;;;;;;5061533;28;20158;-85
2024/04/07 08:45:10;;;;;;;7.68;0.70;;;17.30;78.60;;;;;;5059915;28;20028;-85
2024/04/07 08:47:37;;;;;;;1.65;0.40;;;17.40;78.80;;;;;;5063143;28;20036;-85
2024/04/07 08:50:07;;;;;;;4.03;0.40;;;17.40;78.00;;;;;;5059644;28;20028;-86
2024/04/07 08:52:33;;;;;;;1.70;0.40;;;17.50;78.10;;;;;;5062973;28;20021;-83
2024/04/07 08:54:59;;;;;;;4.40;0.40;;;17.60;78.10;;;;;;5061842;28;20079;-84
2024/04/07 08:57:25;;;;;;;4.20;0.65;;;17.60;77.20;;;;;;5061876;28;20029;-83
2024/04/07 08:59:52;;;;;;;3.38;0.50;;;17.70;76.90;;;;;;5062914;28;20017;-85
2024/04/07 09:02:19;;;;;;;5.25;0.50;;;17.70;76.90;;;;;;5061265;28;20056;-85
2024/04/07 09:04:45;;;;;;;4.63;0.57;;;17.80;76.70;;;;;;5062841;28;20481;-85
2024/04/07 09:07:11;;;;;;;1.92;0.43;;;17.80;76.60;;;;;;5059336;28;20031;-85
2024/04/07 09:09:37;;;;;;;4.15;0.50;;;17.90;76.80;;;;;;5061091;28;20017;-85
2024/04/07 09:12:07;;;;;;;2.92;0.50;;;17.90;76.50;;;;;;5059921;28;20060;-85
2024/04/07 09:14:34;;;;;;;3.33;0.40;;;18.00;76.60;;;;;;5061843;28;20032;-85
2024/04/07 09:17:05;;;;;;;3.60;0.50;;;18.10;76.20;;;;;;5061111;28;20400;-85
2024/04/07 09:19:35;;;;;;;1.70;0.38;;;18.20;75.70;;;;;;5059259;28;20055;-84
2024/04/07 09:22:02;;;;;;;2.90;0.45;;;18.30;75.20;;;;;;5062139;28;20040;-85
2024/04/07 09:24:30;;;;;;;2.28;0.40;;;18.40;75.20;;;;;;5060994;28;20031;-85
2024/04/07 09:27:01;;;;;;;4.03;0.40;;;18.50;74.90;;;;;;5060784;28;20124;-84
2024/04/07 09:29:30;;;;;;;3.10;0.60;;;18.50;74.40;;;;;;5060186;28;20021;-85
2024/04/07 09:31:58;;;;;;;4.88;0.85;;;18.60;74.00;;;;;;5061403;28;20405;-85
2024/04/07 09:34:24;;;;;;;3.10;0.50;;;18.60;73.90;;;;;;5062536;28;20025;-85
2024/04/07 09:36:50;;;;;;;3.63;0.43;;;18.70;72.90;;;;;;5060570;28;20029;-85
2024/04/07 09:39:16;;;;;;;2.50;0.40;;;18.70;72.30;;;;;;5061117;28;20106;-85
2024/04/07 09:41:47;;;;;;;3.17;0.50;;;18.70;71.90;;;;;;5059228;28;20439;-85
2024/04/07 09:44:19;;;;;;;3.60;0.55;;;18.80;71.90;;;;;;5060960;28;20029;-86
2024/04/07 09:46:45;;;;;;;2.72;0.50;;;18.90;72.00;;;;;;5060953;28;20017;-85
2024/04/07 09:49:12;;;;;;;2.90;0.60;;;19.00;72.10;;;;;;5059681;28;20081;-85
2024/04/07 09:52:01;;;;;;;2.50;0.40;;;19.10;71.40;;;;;;5063008;28;20028;-85
2024/04/07 09:54:45;;;;;;;5.18;0.47;;;19.30;71.20;;;;;;5064282;28;20037;-85
2024/04/07 09:57:11;;;;;;;;;;;19.40;70.00;;;;;;5062245;28;20021;-85
2024/04/07 09:59:46;;;;;;;5.15;0.93;;;19.50;69.90;;;;;;5060448;28;19935;-85
2024/04/07 10:02:13;;;;;;;2.10;0.40;;;19.50;69.70;;;;;;5060764;28;20033;-85
2024/04/07 10:04:40;;;;;;;2.60;0.47;;;19.60;69.60;;;;;;5062023;28;20041;-85
2024/04/07 10:07:07;;;;;;;2.28;0.40;;;19.80;69.50;;;;;;5060561;28;20017;-85
2024/04/07 10:09:35;;;;;;;2.45;0.57;;;20.00;69.50;;;;;;5062073;28;20026;-85
2024/04/07 10:12:00;;;;;;;2.60;0.40;;;20.10;69.00;;;;;;5059066;28;20037;-84
2024/04/07 10:14:39;;;;;;;3.95;0.63;;;20.20;68.50;;;;;;5060045;28;20044;-85
2024/04/07 10:17:12;;;;;;;2.42;0.40;;;20.30;68.30;;;;;;5060560;28;20064;-86
2024/04/07 10:19:44;;;;;;;2.00;0.40;;;20.40;68.20;;;;;;5060338;28;20029;-86
2024/04/07 10:22:12;;;;;;;2.47;0.25;;;20.60;67.80;;;;;;5060653;28;20064;-86
2024/04/07 10:24:40;;;;;;;1.48;0.30;;;20.90;66.90;;;;;;5059873;28;20052;-86
2024/04/07 10:27:09;;;;;;;2.13;0.50;;;21.40;66.20;;;;;;5059797;28;20041;-86
2024/04/07 10:29:34;;;;;;;1.70;0.40;;;21.90;65.40;;;;;;5060067;28;20018;-85
2024/04/07 10:32:02;;;;;;;3.20;0.32;;;22.50;64.20;;;;;;5059080;28;20032;-86
2024/04/07 10:34:28;;;;;;;2.60;0.40;;;23.10;64.00;;;;;;5064308;28;20029;-86
2024/04/07 10:36:56;;;;;;;2.67;0.52;;;23.70;62.00;;;;;;5061744;28;20036;-86
2024/04/07 10:39:27;;;;;;;1.80;0.40;;;24.10;60.60;;;;;;5063932;28;20017;-86
2024/04/07 10:41:53;;;;;;;1.88;0.25;;;24.50;59.40;;;;;;5062268;28;20144;-86
2024/04/07 10:44:19;;;;;;;1.85;0.38;;;25.00;59.10;;;;;;5064129;28;20013;-86
2024/04/07 10:46:45;;;;;;;2.13;0.30;;;25.50;58.40;;;;;;5062890;28;20031;-86
2024/04/07 10:49:11;;;;;;;1.42;0.30;;;25.90;56.50;;;;;;5063146;28;20091;-86
2024/04/07 10:51:37;;;;;;;3.55;0.60;;;26.20;55.60;;;;;;5064633;28;20021;-90
2024/04/07 10:54:10;;;;;;;4.30;0.30;;;26.50;55.20;;;;;;5062174;28;20025;-88
2024/04/07 10:56:35;;;;;;;2.53;0.30;;;26.60;55.30;;;;;;5064593;28;20033;-87
2024/04/07 10:59:02;;;;;;;2.80;0.30;;;26.60;55.20;;;;;;5062869;28;20048;-88
2024/04/07 11:01:29;;;;;;;2.17;0.40;;;26.50;54.10;;;;;;5061860;28;20024;-89
2024/04/07 11:03:59;;;;;;;2.47;0.40;;;26.30;53.80;;;;;;5052044;28;20018;-88
2024/04/07 11:06:27;;;;;;;2.63;0.30;;;26.10;53.20;;;;;;5060438;28;20033;-88
2024/04/07 11:08:54;;;;;;;1.92;0.30;;;26.00;53.20;;;;;;5054768;28;20009;-88
2024/04/07 11:11:23;;;;;;;3.38;0.32;;;26.00;53.50;;;;;;5060319;28;20017;-88
2024/04/07 11:13:51;;;;;;;1.20;0.30;;;26.00;52.80;;;;;;5050373;28;20041;-87
2024/04/07 11:16:17;;;;;;;3.60;0.30;;;25.80;52.30;;;;;;5050565;28;20009;-92
2024/04/07 11:18:43;;;;;;;2.58;0.50;;;25.80;52.30;;;;;;5053155;28;20100;-89
2024/04/07 11:21:10;;;;;;;1.70;0.30;;;25.70;52.20;;;;;;5055595;28;20542;-89
2024/04/07 11:23:39;;;;;;;1.88;0.43;;;25.70;51.80;;;;;;5053911;28;20048;-89
2024/04/07 11:26:05;;;;;;;2.58;0.40;;;25.60;52.10;;;;;;5057045;28;20020;-89
2024/04/07 11:28:31;;;;;;;2.10;0.30;;;25.50;51.40;;;;;;5055638;28;20045;-90
2024/04/07 11:30:57;;;;;;;2.13;0.30;;;25.50;51.60;;;;;;5054446;28;20021;-89
2024/04/07 11:33:28;;;;;;;1.75;0.30;;;25.50;51.50;;;;;;5055487;28;20029;-89
2024/04/07 11:35:54;;;;;;;2.40;0.30;;;25.60;51.40;;;;;;5054272;28;20024;-89
2024/04/07 11:38:20;;;;;;;2.22;0.40;;;25.70;51.10;;;;;;5056571;28;20044;-89
2024/04/07 11:40:48;;;;;;;1.23;0.22;;;25.80;50.80;;;;;;5058059;28;20018;-90
2024/04/07 11:43:13;;;;;;;1.95;0.30;;;25.80;50.50;;;;;;5059158;28;20029;-90
2024/04/07 11:45:39;;;;;;;1.92;0.28;;;25.80;50.20;;;;;;5061441;28;20108;-89
2024/04/07 11:48:07;;;;;;;3.55;0.40;;;25.80;49.80;;;;;;5046557;28;20017;-90
2024/04/07 11:50:33;;;;;;;2.97;0.30;;;25.80;49.10;;;;;;5042228;28;20026;-90
2024/04/07 11:52:59;;;;;;;1.27;0.20;;;25.70;49.70;;;;;;5042769;28;20477;-89
2024/04/07 11:55:25;;;;;;;1.45;0.20;;;25.90;49.60;;;;;;5061131;28;20044;-90
2024/04/07 11:57:51;;;;;;;1.27;0.20;;;26.00;49.50;;;;;;5061824;28;20017;-89
2024/04/07 12:00:17;;;;;;;2.58;0.40;;;26.30;49.50;;;;;;5065366;28;20434;-89
2024/04/07 12:02:42;;;;;;;1.55;0.30;;;26.50;49.30;;;;;;5073067;28;20059;-90
2024/04/07 12:05:08;;;;;;;1.42;0.20;;;26.60;49.10;;;;;;5068067;28;20025;-90
2024/04/07 12:07:35;;;;;;;1.25;0.20;;;26.80;49.00;;;;;;5060854;28;20009;-89
2024/04/07 12:10:02;;;;;;;1.55;0.20;;;27.00;48.80;;;;;;5064549;28;20017;-89
2024/04/07 12:12:28;;;;;;;1.60;0.30;;;27.20;48.30;;;;;;5063644;28;20047;-90
2024/04/07 12:14:54;;;;;;;1.50;0.20;;;27.40;48.00;;;;;;5062776;28;20033;-90
2024/04/07 12:17:20;;;;;;;2.13;0.32;;;27.60;47.90;;;;;;5062486;28;20013;-90
2024/04/07 12:19:46;;;;;;;1.33;0.20;;;27.60;47.20;;;;;;5060686;28;20082;-91
2024/04/07 12:22:19;;;;;;;1.38;0.30;;;27.80;47.20;;;;;;5063956;28;20024;-90
2024/04/07 12:24:45;;;;;;;1.48;0.25;;;27.90;46.80;;;;;;5060913;28;20032;-90
2024/04/07 12:27:11;;;;;;;1.80;0.20;;;28.00;46.10;;;;;;5062205;28;20029;-89
2024/04/07 12:29:39;;;;;;;0.98;0.20;;;27.90;45.40;;;;;;5063240;28;20104;-90
2024/04/07 12:32:05;;;;;;;1.83;0.20;;;27.90;45.30;;;;;;5063324;28;20097;-89
2024/04/07 12:34:31;;;;;;;1.75;0.40;;;27.90;45.50;;;;;;5063952;28;20037;-89
2024/04/07 12:36:57;;;;;;;1.27;0.20;;;28.10;45.80;;;;;;5061847;28;20064;-90
2024/04/07 12:39:22;;;;;;;1.00;0.20;;;28.20;45.70;;;;;;5064626;28;20048;-88
2024/04/07 12:41:49;;;;;;;2.00;0.20;;;28.30;45.80;;;;;;5062181;28;20066;-90
2024/04/07 12:44:19;;;;;;;1.20;0.30;;;28.40;45.60;;;;;;5062743;28;20025;-88
2024/04/07 12:46:45;;;;;;;1.58;0.28;;;28.50;45.20;;;;;;5062187;28;20084;-88